Terminal Aerodrome Forecast
Issued by NWS

Home | Current Version | Previous Version | Text Only | Print | Product List | Glossary On
Versions: 1 2 3 4 5 6 7 8 9 10 11 12 13 14
000
FTUS44 KLIX 042343
TAFMCB
TAF
KMCB 042343Z 0500/0524 34006KT 6SM -RA OVC005
      TEMPO 0503/0505 3SM RA BR OVC003
     FM050500 02006KT 3SM -RA BR OVC003
     FM051200 05006KT 3SM SHRA BR OVC003
     FM051800 09007KT 1SM SHRA BR OVC003=

USA.gov is the U.S. government's official web portal to all federal, state and local government web resources and services.